Map

Track Data

SID SEASON NUMBER BASIN SUBBASIN NAME ISO_TIME NATURE LAT LON WMO_WIND WMO_PRES WMO_AGENCY TRACK_TYPE DIST2LAND LANDFALL IFLAG USA_AGENCY USA_ATCF_ID USA_LAT USA_LON USA_RECORD USA_STATUS USA_WIND USA_PRES USA_SSHS USA_R34_NE USA_R34_SE USA_R34_SW USA_R34_NW USA_R50_NE USA_R50_SE USA_R50_SW USA_R50_NW USA_R64_NE USA_R64_SE USA_R64_SW USA_R64_NW USA_POCI USA_ROCI USA_RMW USA_EYE TOKYO_LAT TOKYO_LON TOKYO_GRADE TOKYO_WIND TOKYO_PRES TOKYO_R50_DIR TOKYO_R50_LONG TOKYO_R50_SHORT TOKYO_R30_DIR TOKYO_R30_LONG TOKYO_R30_SHORT TOKYO_LAND CMA_LAT CMA_LON CMA_CAT CMA_WIND CMA_PRES HKO_LAT HKO_LON HKO_CAT HKO_WIND HKO_PRES NEWDELHI_LAT NEWDELHI_LON NEWDELHI_GRADE NEWDELHI_WIND NEWDELHI_PRES NEWDELHI_CI NEWDELHI_DP NEWDELHI_POCI REUNION_LAT REUNION_LON REUNION_TYPE REUNION_WIND REUNION_PRES REUNION_TNUM REUNION_CI REUNION_RMW REUNION_R34_NE REUNION_R34_SE REUNION_R34_SW REUNION_R34_NW REUNION_R50_NE REUNION_R50_SE REUNION_R50_SW REUNION_R50_NW REUNION_R64_NE REUNION_R64_SE REUNION_R64_SW REUNION_R64_NW BOM_LAT BOM_LON BOM_TYPE BOM_WIND BOM_PRES BOM_TNUM BOM_CI BOM_RMW BOM_R34_NE BOM_R34_SE BOM_R34_SW BOM_R34_NW BOM_R50_NE BOM_R50_SE BOM_R50_SW BOM_R50_NW BOM_R64_NE BOM_R64_SE BOM_R64_SW BOM_R64_NW BOM_ROCI BOM_POCI BOM_EYE BOM_POS_METHOD BOM_PRES_METHOD NADI_LAT NADI_LON NADI_CAT NADI_WIND NADI_PRES WELLINGTON_LAT WELLINGTON_LON WELLINGTON_WIND WELLINGTON_PRES DS824_LAT DS824_LON DS824_STAGE DS824_WIND DS824_PRES TD9636_LAT TD9636_LON TD9636_STAGE TD9636_WIND TD9636_PRES TD9635_LAT TD9635_LON TD9635_WIND TD9635_PRES TD9635_ROCI NEUMANN_LAT NEUMANN_LON NEUMANN_CLASS NEUMANN_WIND NEUMANN_PRES MLC_LAT MLC_LON MLC_CLASS MLC_WIND MLC_PRES USA_GUST BOM_GUST BOM_GUST_PER REUNION_GUST REUNION_GUST_PER USA_SEAHGT USA_SEARAD_NE USA_SEARAD_SE USA_SEARAD_SW USA_SEARAD_NW STORM_SPEED STORM_DIR
1947207N18133 1947 48 WP MM FAITH 1947-07-26 00:00:00 TS 18.2000 132.800 main 1018 986 O________OOO__ jtwc_wp WP061947 18.2000 132.800 40 0 18.2000 132.800 TC 40 18.2000 132.800 2 40 18.2000 132.800 40 999 300 8 285
1947207N18133 1947 48 WP MM FAITH 1947-07-26 03:00:00 TS 18.2998 132.406 main 986 955 P________PPP__ WP061947 18.2877 132.400 40 0 18.2877 132.400 TC 40 18.3361 132.425 2 41 18.2877 132.400 40 999 270 8 286
1947207N18133 1947 48 WP MM FAITH 1947-07-26 06:00:00 TS 18.4169 132.010 main 955 931 O________OPO__ jtwc_wp WP061947 18.4000 132.000 40 0 18.4000 132.000 TC 40 18.4675 132.041 2 42 18.4000 132.000 40 999 240 8 289
1947207N18133 1947 48 WP MM FAITH 1947-07-26 09:00:00 TS 18.5600 131.609 main 931 902 P________PPP__ WP061947 18.5499 131.600 42 0 18.5499 131.600 TC 42 18.5902 131.635 2 43 18.5499 131.600 42 998 240 8 290
1947207N18133 1947 48 WP MM FAITH 1947-07-26 12:00:00 TS 18.7000 131.200 main 902 875 O________OOO__ jtwc_wp WP061947 18.7000 131.200 45 0 18.7000 131.200 TC 45 18.7000 131.200 2 45 18.7000 131.200 45 998 240 8 287
1947207N18133 1947 48 WP MM FAITH 1947-07-26 15:00:00 TS 18.7939 130.789 main 875 850 P________PPP__ WP061947 18.7924 130.807 40 0 18.7924 130.807 TC 40 18.7985 130.733 2 42 18.7924 130.807 40 998 270 8 284
1947207N18133 1947 48 WP MM FAITH 1947-07-26 18:00:00 TS 18.9027 130.367 main 850 804 O________OPO__ jtwc_wp WP061947 18.9000 130.400 35 0 18.9000 130.400 TC 35 18.9107 130.267 2 40 18.9000 130.400 35 999 300 9 288
1947207N18133 1947 48 WP MM FAITH 1947-07-26 21:00:00 TS 19.0638 129.906 main 804 764 P________PPP__ WP061947 19.0626 129.928 35 0 19.0626 129.928 TC 35 19.0674 129.843 2 37 19.0626 129.928 35 1000 330 9 296
1947207N18133 1947 48 WP MM FAITH 1947-07-27 00:00:00 TS 19.3000 129.500 main 764 737 O________OOO__ jtwc_wp WP061947 19.3000 129.500 35 0 19.3000 129.500 TC 35 19.3000 129.500 2 35 19.3000 129.500 35 1001 360 9 310
1947207N18133 1947 48 WP MM FAITH 1947-07-27 03:00:00 TS 19.6160 129.215 main 737 729 P________PPP__ WP061947 19.6049 129.183 32 -1 19.6049 129.183 TC 32 19.6492 129.312 2 33 19.6049 129.183 32 1002 390 8 330
1947207N18133 1947 48 WP MM FAITH 1947-07-27 06:00:00 TS 20.0185 129.051 main 736 725 O________OPO__ jtwc_wp WP061947 20.0000 129.000 30 -1 20.0000 129.000 TC 30 20.0741 129.204 2 32 20.0000 129.000 30 1003 420 9 348
1947207N18133 1947 48 WP MM FAITH 1947-07-27 09:00:00 TS 20.5035 129.012 main 740 740 P________PPP__ WP061947 20.4924 128.977 30 -1 20.4924 128.977 TC 30 20.5369 129.118 2 31 20.4924 128.977 30 1004 390 10 358
1947207N18133 1947 48 WP MM FAITH 1947-07-27 12:00:00 TS 21.0000 129.000 main 759 759 O________OOO__ jtwc_wp WP061947 21.0000 129.000 30 -1 21.0000 129.000 TC 30 21.0000 129.000 1 30 21.0000 129.000 30 1005 360 9 355
1947207N18133 1947 48 WP MM FAITH 1947-07-27 15:00:00 TS 21.4229 128.930 main 767 766 P________PPP__ WP061947 21.4148 128.967 32 -1 21.4148 128.967 TC 32 21.4472 128.817 1 30 21.4148 128.967 32 1004 330 9 344
1947207N18133 1947 48 WP MM FAITH 1947-07-27 18:00:00 TS 21.8203 128.746 main 757 711 O________OPO__ jtwc_wp WP061947 21.8000 128.800 35 0 21.8000 128.800 TC 35 21.8814 128.585 1 30 21.8000 128.800 35 1004 300 10 328
1947207N18133 1947 48 WP MM FAITH 1947-07-27 21:00:00 TS 22.2356 128.385 main 711 647 P________PPP__ WP061947 22.2225 128.418 32 -1 22.2225 128.418 TC 32 22.2750 128.286 1 30 22.2225 128.418 32 1004 270 11 315
1947207N18133 1947 48 WP MM FAITH 1947-07-28 00:00:00 TS 22.6000 127.900 main 647 587 O________OOO__ jtwc_wp WP061947 22.6000 127.900 30 -1 22.6000 127.900 TC 30 22.6000 127.900 1 30 22.6000 127.900 30 1004 240 11 305
1947207N18133 1947 48 WP MM FAITH 1947-07-28 03:00:00 TS 22.8876 127.374 main 587 522 P________PPP__ WP061947 22.9024 127.373 27 -1 22.9024 127.373 TC 27 22.8435 127.379 1 27 22.9024 127.373 27 1004 240 11 295
1947207N18133 1947 48 WP MM FAITH 1947-07-28 06:00:00 TS 23.0786 126.795 main 522 460 O________OPO__ jtwc_wp WP061947 23.1000 126.800 25 -1 23.1000 126.800 TC 25 23.0144 126.780 1 25 23.1000 126.800 25 1004 240 11 284
1947207N18133 1947 48 WP MM FAITH 1947-07-28 09:00:00 TS 23.1727 126.174 main 460 403 P________PPP__ WP061947 23.1877 126.177 22 -1 23.1877 126.177 TC 22 23.1279 126.166 1 22 23.1877 126.177 22 1004 210 11 276
1947207N18133 1947 48 WP MM FAITH 1947-07-28 12:00:00 TS 23.2000 125.600 main 403 365 O________OOO__ jtwc_wp WP061947 23.2000 125.600 20 -1 23.2000 125.600 TC 20 23.2000 125.600 1 20 23.2000 125.600 20 1005 180 9 272
1947207N18133 1947 48 WP MM FAITH 1947-07-28 15:00:00 TS 23.2127 125.160 main 365 328 P________PPP__ WP061947 23.1997 125.162 20 -1 23.1997 125.162 TC 20 23.2519 125.154 1 20 23.1997 125.162 20 1005 150 7 271
1947207N18133 1947 48 WP MM FAITH 1947-07-28 18:00:00 TS 23.2178 124.792 main 328 301 O________OPO__ jtwc_wp WP061947 23.2000 124.800 20 -1 23.2000 124.800 TC 20 23.2714 124.766 1 20 23.2000 124.800 20 1005 120 7 273
1947207N18133 1947 48 WP MM FAITH 1947-07-28 21:00:00 TS 23.2519 124.431 main 287 260 P________PPP__ WP061947 23.2424 124.435 20 -1 23.2424 124.435 TC 20 23.2803 124.420 1 20 23.2424 124.435 20 1005 150 6 277
1947207N18133 1947 48 WP MM FAITH 1947-07-29 00:00:00 TS 23.3000 124.100 main 260 235 O________OOO__ jtwc_wp WP061947 23.3000 124.100 20 -1 23.3000 124.100 TC 20 23.3000 124.100 1 20 23.3000 124.100 20 1005 180 6 277
1947207N18133 1947 48 WP MM FAITH 1947-07-29 03:00:00 TS 23.3297 123.778 main 235 203 P________PPP__ WP061947 23.3424 123.792 20 -1 23.3424 123.792 TC 20 23.2916 123.733 1 22 23.3424 123.792 20 1004 180 6 278
1947207N18133 1947 48 WP MM FAITH 1947-07-29 06:00:00 TS 23.3769 123.474 main 203 172 O________OPO__ jtwc_wp WP061947 23.4000 123.500 20 -1 23.4000 123.500 TC 20 23.3076 123.395 1 25 23.4000 123.500 20 1004 180 6 283
1947207N18133 1947 48 WP MM FAITH 1947-07-29 09:00:00 TS 23.4568 123.166 main 172 142 P________PPP__ WP061947 23.4775 123.185 25 -1 23.4775 123.185 TC 25 23.3948 123.109 1 27 23.4775 123.185 25 1003 150 6 293
1947207N18133 1947 48 WP MM FAITH 1947-07-29 12:00:00 TS 23.6000 122.900 main 142 120 O________OOO__ jtwc_wp WP061947 23.6000 122.900 30 -1 23.6000 122.900 TC 30 23.6000 122.900 1 30 23.6000 122.900 30 1002 120 6 302
1947207N18133 1947 48 WP MM FAITH 1947-07-29 15:00:00 TS 23.7612 122.641 main 105 75 P________PPP__ WP061947 23.6950 122.633 32 -1 23.6950 122.633 TC 32 23.9599 122.666 1 32 23.6950 122.633 32 1001 120 6 325
1947207N18133 1947 48 WP MM FAITH 1947-07-29 18:00:00 TS 24.1099 122.507 main 75 55 O________OPO__ jtwc_wp WP061947 24.0000 122.500 35 0 24.0000 122.500 TC 35 24.4395 122.527 1 35 24.0000 122.500 35 1000 120 10 354
1947207N18133 1947 48 WP MM FAITH 1947-07-29 21:00:00 TS 24.7989 122.530 main 55 51 P________PPP__ WP061947 24.7320 122.523 37 0 24.7320 122.523 TC 37 24.9995 122.549 1 37 24.7320 122.523 37 998 120 15 10
1947207N18133 1947 48 WP MM FAITH 1947-07-30 00:00:00 TS 25.6000 122.800 main 104 104 O________OOO__ jtwc_wp WP061947 25.6000 122.800 40 0 25.6000 122.800 TC 40 25.6000 122.800 2 40 25.6000 122.800 40 997 120 16 26
1947207N18133 1947 48 WP MM FAITH 1947-07-30 03:00:00 TS 26.2664 123.326 main 195 195 P________PPP__ WP061947 26.2872 123.330 45 0 26.2872 123.330 TC 45 26.2042 123.315 2 40 26.2872 123.330 45 995 120 17 42
1947207N18133 1947 48 WP MM FAITH 1947-07-30 06:00:00 TS 26.8826 124.091 main 291 291 O________OPO__ jtwc_wp WP061947 26.9000 124.100 50 0 26.9000 124.100 TC 50 26.8304 124.066 2 40 26.9000 124.100 50 993 120 19 51
1947207N18133 1947 48 WP MM FAITH 1947-07-30 09:00:00 TS 27.4758 124.989 main 345 345 P________PPP__ WP061947 27.4873 124.990 45 0 27.4873 124.990 TC 45 27.4411 124.984 2 40 27.4873 124.990 45 994 120 20 57
1947207N18133 1947 48 WP MM FAITH 1947-07-30 12:00:00 TS 28.0000 126.000 main 412 412 O________OOO__ jtwc_wp WP061947 28.0000 126.000 40 0 28.0000 126.000 TC 40 28.0000 126.000 2 40 28.0000 126.000 40 995 120 20 62
1947207N18133 1947 48 WP MM FAITH 1947-07-30 15:00:00 TS 28.4367 127.034 main 438 341 P________PPP__ WP061947 28.4218 127.029 35 0 28.4218 127.029 TC 35 28.4813 127.051 2 37 28.4218 127.029 35 997 90 20 66
1947207N18133 1947 48 WP MM FAITH 1947-07-30 18:00:00 TS 28.8239 128.105 main 335 246 O________OPO__ jtwc_wp WP061947 28.8000 128.100 30 -1 28.8000 128.100 TC 30 28.8955 128.121 2 35 28.8000 128.100 30 1000 60 20 68
1947207N18133 1947 48 WP MM FAITH 1947-07-30 21:00:00 TS 29.2112 129.196 main 242 163 P________PPP__ WP061947 29.1943 129.193 30 -1 29.1943 129.193 TC 30 29.2620 129.205 2 32 29.1943 129.193 30 1001 60 21 68
1947207N18133 1947 48 WP MM FAITH 1947-07-31 00:00:00 TS 29.6000 130.300 main 160 O________OOO__ jtwc_wp WP061947 29.6000 130.300 30 -1 29.6000 130.300 TC 30 29.6000 130.300 1 30 29.6000 130.300 30 1002 60 21 68

Digital Typhoon Data and Search

About IBTrACS Database

This database is a web-friendly format of International Best Track Archive for Climate Stewardship (IBTrACS), a global best track data archive curated by NOAA dating back to 1842.

Updated: 2021-12-01